createdAt,value
2022-11-02T00:09:27.482Z,19
2022-11-02T00:38:04.846Z,18.98
2022-11-02T01:06:31.141Z,18.96
2022-11-02T01:34:56.617Z,18.95
2022-11-02T02:03:33.416Z,18.92
2022-11-02T02:32:06.849Z,18.89
2022-11-02T03:00:44.177Z,18.89
2022-11-02T03:29:02.839Z,18.88
2022-11-02T03:57:20.437Z,18.86
2022-11-02T04:25:51.484Z,18.85
2022-11-02T04:54:20.698Z,18.83
2022-11-02T05:22:50.602Z,18.96
2022-11-02T05:51:18.395Z,19.07
2022-11-02T06:19:48.298Z,19.16
2022-11-02T06:48:15.619Z,18.63
2022-11-02T07:16:42.484Z,19.05
2022-11-02T07:45:09.251Z,19.19
2022-11-02T08:13:37.836Z,19.31
2022-11-02T08:42:07.965Z,19.41
2022-11-02T09:10:33.566Z,19.48
2022-11-02T09:38:58.956Z,19.57
2022-11-02T10:07:23.092Z,19.65
2022-11-02T11:04:18.441Z,19.47
2022-11-02T11:32:40.452Z,19.43
2022-11-02T12:01:11.004Z,19.4
2022-11-02T12:29:22.327Z,19.32
2022-11-02T12:57:51.302Z,19.31
2022-11-02T13:26:18.428Z,19.38
2022-11-02T13:54:46.215Z,19.39
2022-11-02T14:23:10.445Z,19.42
2022-11-02T14:51:37.734Z,19.45
2022-11-02T15:19:57.995Z,19.43
2022-11-02T15:48:23.875Z,19.37
2022-11-02T16:16:51.038Z,19.3
2022-11-02T16:45:12.901Z,19.25
2022-11-02T17:13:38.478Z,19.23
2022-11-02T17:42:06.176Z,19.2
2022-11-02T18:10:33.210Z,19.14
2022-11-02T18:39:01.176Z,19.08
2022-11-02T19:07:32.787Z,19.05
2022-11-02T19:35:58.512Z,19
2022-11-02T20:04:22.838Z,18.96
2022-11-02T20:32:52.795Z,18.93
2022-11-02T21:01:21.394Z,18.89
2022-11-02T21:29:45.012Z,18.87
2022-11-02T21:58:10.884Z,18.83
2022-11-02T22:26:38.992Z,18.8
2022-11-02T22:55:07.153Z,18.76
2022-11-02T23:23:34.371Z,18.71
2022-11-02T23:52:02.278Z,18.69
